< < Back
Terminal Aerodrome Forecast


Current Version              Previous Versions:   1  2  3  4  5  6  7  8  9  

Terminal Aerodrome Forecast

930
FTUS42 KGSP 251731
TAFAVL
TAF
KAVL 251731Z 2518/2618 20006KT P6SM BKN050
      TEMPO 2520/2523 SHRA BKN040
     FM260200 VRB02KT P6SM BKN250
     FM261600 24004KT P6SM BKN060 PROB30 2616/2618 4SM -TSRA
      BKN050CB=



Latest METAR

758
SAUS70 KWBC 251800 RRD
MTRAVL
METAR KAVL 251754Z VRB04KT 10SM SCT060 26/11 A3027 RMK AO2 SLP227
T02610106 10272 20122 58014


USA.gov is the U.S. government's official web portal to all federal, state and local government web resources and services.